sensor_id;sensor_type;location;lat;lon;timestamp;P1;durP1;ratioP1;P2;durP2;ratioP2
16975;SDS011;8604;48.148;-1.786;2023-02-24T00:00:26;27.67;;;20.37;;
16975;SDS011;8604;48.148;-1.786;2023-02-24T00:03:04;26.87;;;20.30;;
16975;SDS011;8604;48.148;-1.786;2023-02-24T00:05:37;29.97;;;20.27;;
16975;SDS011;8604;48.148;-1.786;2023-02-24T00:08:11;26.97;;;20.30;;
16975;SDS011;8604;48.148;-1.786;2023-02-24T00:10:39;31.03;;;21.00;;
16975;SDS011;8604;48.148;-1.786;2023-02-24T00:13:08;29.13;;;20.37;;
16975;SDS011;8604;48.148;-1.786;2023-02-24T00:15:37;27.57;;;18.70;;
16975;SDS011;8604;48.148;-1.786;2023-02-24T00:18:06;25.53;;;18.60;;
16975;SDS011;8604;48.148;-1.786;2023-02-24T00:20:36;26.87;;;18.50;;
16975;SDS011;8604;48.148;-1.786;2023-02-24T00:23:04;26.27;;;18.97;;
16975;SDS011;8604;48.148;-1.786;2023-02-24T00:25:36;25.80;;;18.63;;
16975;SDS011;8604;48.148;-1.786;2023-02-24T00:28:05;27.20;;;19.50;;
16975;SDS011;8604;48.148;-1.786;2023-02-24T00:30:34;26.70;;;19.37;;
16975;SDS011;8604;48.148;-1.786;2023-02-24T00:33:02;26.90;;;18.97;;
16975;SDS011;8604;48.148;-1.786;2023-02-24T00:35:32;27.53;;;19.47;;
16975;SDS011;8604;48.148;-1.786;2023-02-24T00:38:01;23.87;;;17.87;;
16975;SDS011;8604;48.148;-1.786;2023-02-24T00:40:30;26.37;;;18.03;;
16975;SDS011;8604;48.148;-1.786;2023-02-24T00:43:04;26.73;;;18.50;;
16975;SDS011;8604;48.148;-1.786;2023-02-24T00:45:34;27.00;;;18.50;;
16975;SDS011;8604;48.148;-1.786;2023-02-24T00:48:04;26.13;;;19.37;;
16975;SDS011;8604;48.148;-1.786;2023-02-24T00:50:36;26.07;;;18.13;;
16975;SDS011;8604;48.148;-1.786;2023-02-24T00:53:07;25.33;;;18.53;;
16975;SDS011;8604;48.148;-1.786;2023-02-24T00:55:36;24.97;;;17.73;;
16975;SDS011;8604;48.148;-1.786;2023-02-24T00:58:05;27.73;;;18.37;;
16975;SDS011;8604;48.148;-1.786;2023-02-24T01:00:34;25.97;;;18.57;;
16975;SDS011;8604;48.148;-1.786;2023-02-24T01:03:04;26.93;;;18.07;;
16975;SDS011;8604;48.148;-1.786;2023-02-24T01:05:34;25.30;;;18.17;;
16975;SDS011;8604;48.148;-1.786;2023-02-24T01:08:03;26.93;;;19.17;;
16975;SDS011;8604;48.148;-1.786;2023-02-24T01:10:32;28.10;;;19.03;;
16975;SDS011;8604;48.148;-1.786;2023-02-24T01:13:01;27.30;;;18.97;;
16975;SDS011;8604;48.148;-1.786;2023-02-24T01:15:30;27.33;;;19.40;;
16975;SDS011;8604;48.148;-1.786;2023-02-24T01:17:58;31.13;;;19.40;;
16975;SDS011;8604;48.148;-1.786;2023-02-24T01:20:26;32.53;;;21.73;;
16975;SDS011;8604;48.148;-1.786;2023-02-24T01:22:56;32.57;;;21.03;;
16975;SDS011;8604;48.148;-1.786;2023-02-24T01:25:24;29.13;;;20.30;;
16975;SDS011;8604;48.148;-1.786;2023-02-24T01:27:57;31.53;;;21.40;;
16975;SDS011;8604;48.148;-1.786;2023-02-24T01:30:26;35.30;;;22.63;;
16975;SDS011;8604;48.148;-1.786;2023-02-24T01:32:57;34.43;;;22.03;;
16975;SDS011;8604;48.148;-1.786;2023-02-24T01:35:30;34.83;;;21.93;;
16975;SDS011;8604;48.148;-1.786;2023-02-24T01:38:00;34.83;;;22.37;;
16975;SDS011;8604;48.148;-1.786;2023-02-24T01:40:30;35.43;;;23.20;;
16975;SDS011;8604;48.148;-1.786;2023-02-24T01:42:59;37.10;;;22.40;;
16975;SDS011;8604;48.148;-1.786;2023-02-24T01:46:03;37.03;;;23.37;;
16975;SDS011;8604;48.148;-1.786;2023-02-24T01:48:32;34.37;;;22.60;;
16975;SDS011;8604;48.148;-1.786;2023-02-24T01:51:00;37.13;;;23.83;;
16975;SDS011;8604;48.148;-1.786;2023-02-24T01:53:30;33.90;;;22.10;;
16975;SDS011;8604;48.148;-1.786;2023-02-24T01:55:58;37.87;;;23.87;;
16975;SDS011;8604;48.148;-1.786;2023-02-24T01:58:27;34.23;;;23.03;;
16975;SDS011;8604;48.148;-1.786;2023-02-24T02:00:58;37.10;;;24.00;;
16975;SDS011;8604;48.148;-1.786;2023-02-24T02:03:38;41.20;;;23.70;;
16975;SDS011;8604;48.148;-1.786;2023-02-24T02:06:10;37.13;;;23.10;;
16975;SDS011;8604;48.148;-1.786;2023-02-24T02:08:43;37.27;;;23.30;;
16975;SDS011;8604;48.148;-1.786;2023-02-24T02:11:14;37.20;;;23.43;;
16975;SDS011;8604;48.148;-1.786;2023-02-24T02:13:47;36.77;;;23.33;;
16975;SDS011;8604;48.148;-1.786;2023-02-24T02:16:22;38.50;;;24.50;;
16975;SDS011;8604;48.148;-1.786;2023-02-24T02:19:17;38.57;;;23.97;;
16975;SDS011;8604;48.148;-1.786;2023-02-24T02:22:23;42.03;;;25.77;;
16975;SDS011;8604;48.148;-1.786;2023-02-24T02:25:10;39.23;;;24.27;;
16975;SDS011;8604;48.148;-1.786;2023-02-24T02:27:50;37.03;;;25.03;;
16975;SDS011;8604;48.148;-1.786;2023-02-24T02:30:42;39.23;;;25.40;;
16975;SDS011;8604;48.148;-1.786;2023-02-24T02:36:43;41.43;;;25.53;;
16975;SDS011;8604;48.148;-1.786;2023-02-24T02:39:29;42.97;;;26.57;;
16975;SDS011;8604;48.148;-1.786;2023-02-24T02:42:04;43.43;;;26.37;;
16975;SDS011;8604;48.148;-1.786;2023-02-24T02:44:34;42.50;;;26.20;;
16975;SDS011;8604;48.148;-1.786;2023-02-24T02:47:07;43.50;;;27.80;;
16975;SDS011;8604;48.148;-1.786;2023-02-24T02:49:43;44.63;;;27.07;;
16975;SDS011;8604;48.148;-1.786;2023-02-24T02:52:16;43.13;;;26.37;;
16975;SDS011;8604;48.148;-1.786;2023-02-24T02:54:51;42.13;;;26.37;;
16975;SDS011;8604;48.148;-1.786;2023-02-24T02:57:22;44.37;;;25.83;;
16975;SDS011;8604;48.148;-1.786;2023-02-24T02:59:56;43.03;;;26.27;;
16975;SDS011;8604;48.148;-1.786;2023-02-24T03:02:31;44.23;;;26.93;;
16975;SDS011;8604;48.148;-1.786;2023-02-24T03:05:10;42.50;;;26.30;;
16975;SDS011;8604;48.148;-1.786;2023-02-24T03:07:47;43.30;;;26.23;;
16975;SDS011;8604;48.148;-1.786;2023-02-24T03:10:21;41.03;;;25.47;;
16975;SDS011;8604;48.148;-1.786;2023-02-24T03:12:54;41.53;;;25.33;;
16975;SDS011;8604;48.148;-1.786;2023-02-24T03:15:27;43.50;;;25.60;;
16975;SDS011;8604;48.148;-1.786;2023-02-24T03:18:03;41.60;;;25.93;;
16975;SDS011;8604;48.148;-1.786;2023-02-24T03:20:40;41.83;;;25.10;;
16975;SDS011;8604;48.148;-1.786;2023-02-24T03:23:10;39.27;;;24.70;;
16975;SDS011;8604;48.148;-1.786;2023-02-24T03:25:43;41.17;;;24.63;;
16975;SDS011;8604;48.148;-1.786;2023-02-24T03:28:21;38.33;;;24.13;;
16975;SDS011;8604;48.148;-1.786;2023-02-24T03:30:57;42.10;;;24.73;;
16975;SDS011;8604;48.148;-1.786;2023-02-24T03:33:31;44.17;;;25.40;;
16975;SDS011;8604;48.148;-1.786;2023-02-24T03:36:05;37.77;;;25.03;;
16975;SDS011;8604;48.148;-1.786;2023-02-24T03:38:35;40.73;;;24.83;;
16975;SDS011;8604;48.148;-1.786;2023-02-24T03:41:04;38.17;;;24.47;;
16975;SDS011;8604;48.148;-1.786;2023-02-24T03:43:38;38.40;;;24.83;;
16975;SDS011;8604;48.148;-1.786;2023-02-24T03:46:11;38.20;;;24.93;;
16975;SDS011;8604;48.148;-1.786;2023-02-24T03:48:44;42.60;;;25.47;;
16975;SDS011;8604;48.148;-1.786;2023-02-24T03:51:20;38.83;;;24.67;;
16975;SDS011;8604;48.148;-1.786;2023-02-24T03:53:57;39.90;;;25.50;;
16975;SDS011;8604;48.148;-1.786;2023-02-24T03:56:38;36.40;;;24.50;;
16975;SDS011;8604;48.148;-1.786;2023-02-24T03:59:22;36.40;;;24.97;;
16975;SDS011;8604;48.148;-1.786;2023-02-24T04:01:59;38.73;;;24.23;;
16975;SDS011;8604;48.148;-1.786;2023-02-24T04:04:44;37.00;;;24.63;;
16975;SDS011;8604;48.148;-1.786;2023-02-24T04:07:28;40.20;;;24.47;;
16975;SDS011;8604;48.148;-1.786;2023-02-24T04:10:08;36.90;;;23.20;;
16975;SDS011;8604;48.148;-1.786;2023-02-24T04:12:45;36.27;;;24.63;;
16975;SDS011;8604;48.148;-1.786;2023-02-24T04:15:32;34.50;;;23.37;;
16975;SDS011;8604;48.148;-1.786;2023-02-24T04:18:12;38.50;;;24.60;;
16975;SDS011;8604;48.148;-1.786;2023-02-24T04:20:42;39.40;;;23.70;;
16975;SDS011;8604;48.148;-1.786;2023-02-24T04:23:18;36.57;;;24.50;;
16975;SDS011;8604;48.148;-1.786;2023-02-24T04:25:59;36.80;;;24.07;;
16975;SDS011;8604;48.148;-1.786;2023-02-24T04:28:29;36.47;;;24.53;;
16975;SDS011;8604;48.148;-1.786;2023-02-24T04:31:00;38.03;;;24.47;;
16975;SDS011;8604;48.148;-1.786;2023-02-24T04:33:49;36.40;;;24.10;;
16975;SDS011;8604;48.148;-1.786;2023-02-24T04:36:26;38.47;;;23.93;;
16975;SDS011;8604;48.148;-1.786;2023-02-24T04:38:57;37.33;;;24.10;;
16975;SDS011;8604;48.148;-1.786;2023-02-24T04:41:25;36.27;;;23.40;;
16975;SDS011;8604;48.148;-1.786;2023-02-24T04:43:54;37.33;;;23.47;;
16975;SDS011;8604;48.148;-1.786;2023-02-24T04:46:23;34.60;;;23.27;;
16975;SDS011;8604;48.148;-1.786;2023-02-24T04:48:52;35.53;;;24.03;;
16975;SDS011;8604;48.148;-1.786;2023-02-24T04:51:22;34.53;;;23.37;;
16975;SDS011;8604;48.148;-1.786;2023-02-24T04:53:51;35.93;;;23.03;;
16975;SDS011;8604;48.148;-1.786;2023-02-24T04:56:22;35.33;;;23.93;;
16975;SDS011;8604;48.148;-1.786;2023-02-24T04:58:50;34.63;;;24.43;;
16975;SDS011;8604;48.148;-1.786;2023-02-24T05:01:19;34.73;;;23.00;;
16975;SDS011;8604;48.148;-1.786;2023-02-24T05:03:48;35.70;;;23.53;;
16975;SDS011;8604;48.148;-1.786;2023-02-24T05:06:21;39.37;;;24.53;;
16975;SDS011;8604;48.148;-1.786;2023-02-24T05:08:50;34.53;;;23.17;;
16975;SDS011;8604;48.148;-1.786;2023-02-24T05:11:23;37.23;;;24.00;;
16975;SDS011;8604;48.148;-1.786;2023-02-24T05:13:52;35.23;;;23.40;;
16975;SDS011;8604;48.148;-1.786;2023-02-24T05:16:22;32.80;;;22.47;;
16975;SDS011;8604;48.148;-1.786;2023-02-24T05:18:54;35.23;;;22.87;;
16975;SDS011;8604;48.148;-1.786;2023-02-24T05:21:37;35.33;;;23.07;;
16975;SDS011;8604;48.148;-1.786;2023-02-24T05:24:07;32.80;;;22.97;;
16975;SDS011;8604;48.148;-1.786;2023-02-24T05:26:38;34.10;;;22.90;;
16975;SDS011;8604;48.148;-1.786;2023-02-24T05:29:11;33.50;;;22.47;;
16975;SDS011;8604;48.148;-1.786;2023-02-24T05:31:40;31.83;;;21.50;;
16975;SDS011;8604;48.148;-1.786;2023-02-24T05:34:10;34.87;;;21.57;;
16975;SDS011;8604;48.148;-1.786;2023-02-24T05:36:43;31.77;;;21.57;;
16975;SDS011;8604;48.148;-1.786;2023-02-24T05:39:11;34.93;;;20.97;;
16975;SDS011;8604;48.148;-1.786;2023-02-24T05:41:47;34.20;;;22.03;;
16975;SDS011;8604;48.148;-1.786;2023-02-24T05:44:21;32.03;;;21.70;;
16975;SDS011;8604;48.148;-1.786;2023-02-24T05:46:47;30.90;;;20.67;;
16975;SDS011;8604;48.148;-1.786;2023-02-24T05:49:19;30.27;;;20.70;;
16975;SDS011;8604;48.148;-1.786;2023-02-24T05:51:45;32.90;;;21.13;;
16975;SDS011;8604;48.148;-1.786;2023-02-24T05:54:19;34.50;;;21.47;;
16975;SDS011;8604;48.148;-1.786;2023-02-24T05:56:50;33.80;;;22.00;;
16975;SDS011;8604;48.148;-1.786;2023-02-24T05:59:19;31.50;;;21.27;;
16975;SDS011;8604;48.148;-1.786;2023-02-24T06:01:52;31.13;;;20.77;;
16975;SDS011;8604;48.148;-1.786;2023-02-24T06:04:20;34.00;;;21.27;;
16975;SDS011;8604;48.148;-1.786;2023-02-24T06:07:05;34.53;;;21.23;;
16975;SDS011;8604;48.148;-1.786;2023-02-24T06:09:39;33.03;;;20.83;;
16975;SDS011;8604;48.148;-1.786;2023-02-24T06:12:14;32.20;;;20.60;;
16975;SDS011;8604;48.148;-1.786;2023-02-24T06:14:44;34.37;;;21.53;;
16975;SDS011;8604;48.148;-1.786;2023-02-24T06:17:13;31.40;;;20.90;;
16975;SDS011;8604;48.148;-1.786;2023-02-24T06:19:44;34.20;;;21.63;;
16975;SDS011;8604;48.148;-1.786;2023-02-24T06:22:16;34.73;;;21.50;;
16975;SDS011;8604;48.148;-1.786;2023-02-24T06:24:48;33.67;;;21.43;;
16975;SDS011;8604;48.148;-1.786;2023-02-24T06:27:19;34.50;;;20.70;;
16975;SDS011;8604;48.148;-1.786;2023-02-24T06:29:53;32.50;;;20.03;;
16975;SDS011;8604;48.148;-1.786;2023-02-24T06:32:23;37.80;;;21.90;;
16975;SDS011;8604;48.148;-1.786;2023-02-24T06:34:53;33.07;;;20.80;;
16975;SDS011;8604;48.148;-1.786;2023-02-24T06:37:23;32.10;;;20.57;;
16975;SDS011;8604;48.148;-1.786;2023-02-24T06:39:52;33.27;;;20.20;;
16975;SDS011;8604;48.148;-1.786;2023-02-24T06:42:22;33.83;;;21.27;;
16975;SDS011;8604;48.148;-1.786;2023-02-24T06:44:58;33.20;;;19.83;;
16975;SDS011;8604;48.148;-1.786;2023-02-24T06:50:55;34.03;;;20.47;;
16975;SDS011;8604;48.148;-1.786;2023-02-24T06:53:53;32.93;;;20.00;;
16975;SDS011;8604;48.148;-1.786;2023-02-24T06:56:31;33.17;;;20.40;;
16975;SDS011;8604;48.148;-1.786;2023-02-24T06:59:24;33.07;;;20.23;;
16975;SDS011;8604;48.148;-1.786;2023-02-24T07:02:20;32.20;;;20.43;;
16975;SDS011;8604;48.148;-1.786;2023-02-24T07:05:09;35.70;;;21.33;;
16975;SDS011;8604;48.148;-1.786;2023-02-24T07:08:06;33.70;;;20.57;;
16975;SDS011;8604;48.148;-1.786;2023-02-24T07:11:16;33.43;;;20.07;;
16975;SDS011;8604;48.148;-1.786;2023-02-24T07:13:45;33.87;;;20.63;;
16975;SDS011;8604;48.148;-1.786;2023-02-24T07:16:27;37.13;;;21.87;;
16975;SDS011;8604;48.148;-1.786;2023-02-24T07:19:56;33.07;;;20.60;;
16975;SDS011;8604;48.148;-1.786;2023-02-24T07:23:06;38.47;;;21.40;;
16975;SDS011;8604;48.148;-1.786;2023-02-24T07:25:48;31.03;;;20.87;;
16975;SDS011;8604;48.148;-1.786;2023-02-24T07:28:58;33.63;;;20.47;;
16975;SDS011;8604;48.148;-1.786;2023-02-24T07:35:17;34.13;;;20.47;;
16975;SDS011;8604;48.148;-1.786;2023-02-24T07:43:49;34.40;;;21.23;;
16975;SDS011;8604;48.148;-1.786;2023-02-24T07:46:58;32.87;;;19.57;;
16975;SDS011;8604;48.148;-1.786;2023-02-24T07:49:52;32.37;;;20.23;;
16975;SDS011;8604;48.148;-1.786;2023-02-24T07:52:32;31.97;;;20.37;;
16975;SDS011;8604;48.148;-1.786;2023-02-24T07:55:06;31.93;;;20.00;;
16975;SDS011;8604;48.148;-1.786;2023-02-24T07:57:36;32.87;;;20.43;;
16975;SDS011;8604;48.148;-1.786;2023-02-24T08:00:13;33.77;;;20.37;;
16975;SDS011;8604;48.148;-1.786;2023-02-24T08:02:48;34.90;;;20.30;;
16975;SDS011;8604;48.148;-1.786;2023-02-24T08:05:18;32.83;;;19.77;;
16975;SDS011;8604;48.148;-1.786;2023-02-24T08:07:49;35.80;;;20.70;;
16975;SDS011;8604;48.148;-1.786;2023-02-24T08:10:26;33.17;;;20.23;;
16975;SDS011;8604;48.148;-1.786;2023-02-24T08:13:01;31.97;;;19.37;;
16975;SDS011;8604;48.148;-1.786;2023-02-24T08:15:32;30.47;;;19.70;;
16975;SDS011;8604;48.148;-1.786;2023-02-24T08:18:01;33.07;;;19.40;;
16975;SDS011;8604;48.148;-1.786;2023-02-24T08:20:30;34.37;;;20.47;;
16975;SDS011;8604;48.148;-1.786;2023-02-24T08:23:03;33.37;;;21.00;;
16975;SDS011;8604;48.148;-1.786;2023-02-24T08:25:34;30.83;;;19.80;;
16975;SDS011;8604;48.148;-1.786;2023-02-24T08:28:04;32.13;;;19.53;;
16975;SDS011;8604;48.148;-1.786;2023-02-24T08:30:36;28.87;;;18.40;;
16975;SDS011;8604;48.148;-1.786;2023-02-24T08:33:12;28.40;;;19.97;;
16975;SDS011;8604;48.148;-1.786;2023-02-24T08:35:48;33.07;;;24.47;;
16975;SDS011;8604;48.148;-1.786;2023-02-24T08:38:20;36.23;;;29.90;;
16975;SDS011;8604;48.148;-1.786;2023-02-24T08:40:52;36.60;;;31.20;;
16975;SDS011;8604;48.148;-1.786;2023-02-24T08:43:25;39.03;;;31.97;;
16975;SDS011;8604;48.148;-1.786;2023-02-24T08:46:01;27.07;;;20.03;;
16975;SDS011;8604;48.148;-1.786;2023-02-24T08:48:39;28.47;;;20.03;;
16975;SDS011;8604;48.148;-1.786;2023-02-24T08:51:13;23.60;;;17.33;;
16975;SDS011;8604;48.148;-1.786;2023-02-24T08:54:03;23.17;;;17.03;;
16975;SDS011;8604;48.148;-1.786;2023-02-24T08:56:31;23.47;;;15.67;;
16975;SDS011;8604;48.148;-1.786;2023-02-24T08:59:01;20.97;;;15.47;;
16975;SDS011;8604;48.148;-1.786;2023-02-24T09:01:33;20.63;;;14.40;;
16975;SDS011;8604;48.148;-1.786;2023-02-24T09:04:03;20.00;;;14.37;;
16975;SDS011;8604;48.148;-1.786;2023-02-24T09:06:44;18.50;;;13.07;;
16975;SDS011;8604;48.148;-1.786;2023-02-24T09:09:18;18.50;;;13.07;;
16975;SDS011;8604;48.148;-1.786;2023-02-24T09:11:49;16.07;;;11.80;;
16975;SDS011;8604;48.148;-1.786;2023-02-24T09:14:23;15.50;;;10.80;;
16975;SDS011;8604;48.148;-1.786;2023-02-24T09:16:56;14.17;;;10.13;;
16975;SDS011;8604;48.148;-1.786;2023-02-24T09:19:37;13.00;;;8.80;;
16975;SDS011;8604;48.148;-1.786;2023-02-24T09:22:31;11.63;;;8.30;;
16975;SDS011;8604;48.148;-1.786;2023-02-24T09:25:13;11.60;;;7.43;;
16975;SDS011;8604;48.148;-1.786;2023-02-24T09:27:47;10.50;;;7.03;;
16975;SDS011;8604;48.148;-1.786;2023-02-24T09:30:23;13.33;;;7.37;;
16975;SDS011;8604;48.148;-1.786;2023-02-24T09:33:11;10.93;;;6.70;;
16975;SDS011;8604;48.148;-1.786;2023-02-24T09:35:52;11.23;;;6.50;;
16975;SDS011;8604;48.148;-1.786;2023-02-24T09:38:36;10.30;;;7.20;;
16975;SDS011;8604;48.148;-1.786;2023-02-24T09:41:29;11.00;;;7.10;;
16975;SDS011;8604;48.148;-1.786;2023-02-24T09:44:22;11.33;;;7.03;;
16975;SDS011;8604;48.148;-1.786;2023-02-24T09:47:01;11.63;;;7.10;;
16975;SDS011;8604;48.148;-1.786;2023-02-24T09:49:41;10.63;;;6.53;;
16975;SDS011;8604;48.148;-1.786;2023-02-24T09:52:18;10.23;;;6.60;;
16975;SDS011;8604;48.148;-1.786;2023-02-24T09:54:47;11.97;;;6.80;;
16975;SDS011;8604;48.148;-1.786;2023-02-24T09:57:39;10.03;;;6.77;;
16975;SDS011;8604;48.148;-1.786;2023-02-24T10:00:44;11.40;;;6.23;;
16975;SDS011;8604;48.148;-1.786;2023-02-24T10:03:22;12.80;;;7.00;;
16975;SDS011;8604;48.148;-1.786;2023-02-24T10:05:52;12.23;;;6.70;;
16975;SDS011;8604;48.148;-1.786;2023-02-24T10:08:39;11.47;;;6.40;;
16975;SDS011;8604;48.148;-1.786;2023-02-24T10:11:15;10.27;;;5.90;;
16975;SDS011;8604;48.148;-1.786;2023-02-24T10:14:01;10.60;;;6.57;;
16975;SDS011;8604;48.148;-1.786;2023-02-24T10:16:33;12.50;;;6.10;;
16975;SDS011;8604;48.148;-1.786;2023-02-24T10:19:15;17.20;;;10.03;;
16975;SDS011;8604;48.148;-1.786;2023-02-24T10:21:52;11.53;;;7.90;;
16975;SDS011;8604;48.148;-1.786;2023-02-24T10:24:36;11.27;;;7.20;;
16975;SDS011;8604;48.148;-1.786;2023-02-24T10:27:13;9.60;;;6.50;;
16975;SDS011;8604;48.148;-1.786;2023-02-24T10:29:58;12.13;;;6.67;;
16975;SDS011;8604;48.148;-1.786;2023-02-24T10:32:39;10.93;;;6.10;;
16975;SDS011;8604;48.148;-1.786;2023-02-24T10:35:25;9.33;;;6.00;;
16975;SDS011;8604;48.148;-1.786;2023-02-24T10:37:59;11.00;;;6.13;;
16975;SDS011;8604;48.148;-1.786;2023-02-24T10:40:31;12.23;;;6.13;;
16975;SDS011;8604;48.148;-1.786;2023-02-24T10:43:15;11.10;;;6.70;;
16975;SDS011;8604;48.148;-1.786;2023-02-24T10:45:46;10.63;;;6.03;;
16975;SDS011;8604;48.148;-1.786;2023-02-24T10:48:22;11.57;;;6.37;;
16975;SDS011;8604;48.148;-1.786;2023-02-24T10:51:10;10.27;;;6.50;;
16975;SDS011;8604;48.148;-1.786;2023-02-24T10:53:46;12.10;;;6.17;;
16975;SDS011;8604;48.148;-1.786;2023-02-24T10:56:39;9.97;;;6.30;;
16975;SDS011;8604;48.148;-1.786;2023-02-24T10:59:40;9.23;;;5.50;;
16975;SDS011;8604;48.148;-1.786;2023-02-24T11:02:44;9.13;;;5.20;;
16975;SDS011;8604;48.148;-1.786;2023-02-24T11:05:38;11.50;;;5.40;;
16975;SDS011;8604;48.148;-1.786;2023-02-24T11:08:32;10.20;;;5.93;;
16975;SDS011;8604;48.148;-1.786;2023-02-24T11:11:09;9.90;;;5.23;;
16975;SDS011;8604;48.148;-1.786;2023-02-24T11:13:57;11.73;;;5.63;;
16975;SDS011;8604;48.148;-1.786;2023-02-24T11:16:46;10.50;;;5.27;;
16975;SDS011;8604;48.148;-1.786;2023-02-24T11:19:41;8.47;;;5.20;;
16975;SDS011;8604;48.148;-1.786;2023-02-24T11:22:16;10.37;;;5.70;;
16975;SDS011;8604;48.148;-1.786;2023-02-24T11:24:47;10.87;;;5.40;;
16975;SDS011;8604;48.148;-1.786;2023-02-24T11:27:20;9.63;;;5.50;;
16975;SDS011;8604;48.148;-1.786;2023-02-24T11:29:57;9.97;;;5.37;;
16975;SDS011;8604;48.148;-1.786;2023-02-24T11:35:53;9.30;;;5.10;;
16975;SDS011;8604;48.148;-1.786;2023-02-24T11:38:45;9.47;;;5.20;;
16975;SDS011;8604;48.148;-1.786;2023-02-24T11:41:46;9.47;;;5.13;;
16975;SDS011;8604;48.148;-1.786;2023-02-24T12:13:49;10.47;;;5.03;;
16975;SDS011;8604;48.148;-1.786;2023-02-24T12:16:24;9.90;;;5.13;;
16975;SDS011;8604;48.148;-1.786;2023-02-24T12:19:14;12.23;;;4.80;;
16975;SDS011;8604;48.148;-1.786;2023-02-24T12:21:48;12.07;;;4.63;;
16975;SDS011;8604;48.148;-1.786;2023-02-24T12:24:17;10.43;;;4.90;;
16975;SDS011;8604;48.148;-1.786;2023-02-24T12:27:03;10.97;;;5.13;;
16975;SDS011;8604;48.148;-1.786;2023-02-24T12:29:44;8.70;;;5.00;;
16975;SDS011;8604;48.148;-1.786;2023-02-24T12:35:17;11.93;;;4.93;;
16975;SDS011;8604;48.148;-1.786;2023-02-24T12:38:17;9.47;;;4.77;;
16975;SDS011;8604;48.148;-1.786;2023-02-24T12:40:56;10.30;;;4.83;;
16975;SDS011;8604;48.148;-1.786;2023-02-24T12:43:47;12.50;;;5.67;;
16975;SDS011;8604;48.148;-1.786;2023-02-24T12:46:24;11.40;;;5.33;;
16975;SDS011;8604;48.148;-1.786;2023-02-24T12:49:14;12.17;;;5.70;;
16975;SDS011;8604;48.148;-1.786;2023-02-24T12:51:55;13.10;;;5.37;;
16975;SDS011;8604;48.148;-1.786;2023-02-24T12:54:37;12.00;;;5.83;;
16975;SDS011;8604;48.148;-1.786;2023-02-24T12:57:12;11.17;;;5.37;;
16975;SDS011;8604;48.148;-1.786;2023-02-24T12:59:47;11.13;;;5.60;;
16975;SDS011;8604;48.148;-1.786;2023-02-24T13:02:19;10.80;;;5.50;;
16975;SDS011;8604;48.148;-1.786;2023-02-24T13:05:03;10.80;;;5.50;;
16975;SDS011;8604;48.148;-1.786;2023-02-24T13:07:58;15.27;;;7.33;;
16975;SDS011;8604;48.148;-1.786;2023-02-24T13:10:41;14.23;;;6.80;;
16975;SDS011;8604;48.148;-1.786;2023-02-24T13:13:15;11.10;;;5.37;;
16975;SDS011;8604;48.148;-1.786;2023-02-24T13:15:50;10.17;;;4.93;;
16975;SDS011;8604;48.148;-1.786;2023-02-24T13:18:26;9.47;;;5.50;;
16975;SDS011;8604;48.148;-1.786;2023-02-24T13:21:00;9.77;;;4.67;;
16975;SDS011;8604;48.148;-1.786;2023-02-24T13:23:34;12.67;;;5.60;;
16975;SDS011;8604;48.148;-1.786;2023-02-24T13:26:07;12.80;;;5.57;;
16975;SDS011;8604;48.148;-1.786;2023-02-24T13:28:37;10.87;;;4.97;;
16975;SDS011;8604;48.148;-1.786;2023-02-24T13:33:33;11.70;;;5.03;;
16975;SDS011;8604;48.148;-1.786;2023-02-24T13:36:09;11.90;;;5.10;;
16975;SDS011;8604;48.148;-1.786;2023-02-24T13:39:18;10.87;;;4.93;;
16975;SDS011;8604;48.148;-1.786;2023-02-24T13:41:45;10.33;;;5.10;;
16975;SDS011;8604;48.148;-1.786;2023-02-24T13:44:21;10.80;;;4.73;;
16975;SDS011;8604;48.148;-1.786;2023-02-24T13:47:15;11.10;;;4.80;;
16975;SDS011;8604;48.148;-1.786;2023-02-24T13:52:57;10.43;;;5.40;;
16975;SDS011;8604;48.148;-1.786;2023-02-24T13:55:48;12.37;;;5.93;;
16975;SDS011;8604;48.148;-1.786;2023-02-24T13:58:29;12.50;;;5.40;;
16975;SDS011;8604;48.148;-1.786;2023-02-24T14:30:57;12.17;;;5.23;;
16975;SDS011;8604;48.148;-1.786;2023-02-24T14:33:34;10.97;;;5.20;;
16975;SDS011;8604;48.148;-1.786;2023-02-24T14:36:17;12.93;;;5.93;;
16975;SDS011;8604;48.148;-1.786;2023-02-24T14:38:58;10.63;;;5.87;;
16975;SDS011;8604;48.148;-1.786;2023-02-24T14:42:02;13.47;;;5.07;;
16975;SDS011;8604;48.148;-1.786;2023-02-24T14:44:51;10.67;;;4.90;;
16975;SDS011;8604;48.148;-1.786;2023-02-24T14:47:21;9.73;;;4.33;;
16975;SDS011;8604;48.148;-1.786;2023-02-24T14:50:03;12.20;;;4.47;;
16975;SDS011;8604;48.148;-1.786;2023-02-24T14:52:33;10.13;;;4.63;;
16975;SDS011;8604;48.148;-1.786;2023-02-24T14:55:06;11.97;;;4.60;;
16975;SDS011;8604;48.148;-1.786;2023-02-24T14:57:52;12.80;;;4.80;;
16975;SDS011;8604;48.148;-1.786;2023-02-24T15:00:25;9.63;;;4.57;;
16975;SDS011;8604;48.148;-1.786;2023-02-24T15:03:09;10.70;;;4.40;;
16975;SDS011;8604;48.148;-1.786;2023-02-24T15:08:26;10.80;;;4.83;;
16975;SDS011;8604;48.148;-1.786;2023-02-24T15:11:04;11.80;;;4.57;;
16975;SDS011;8604;48.148;-1.786;2023-02-24T15:13:40;9.67;;;4.80;;
16975;SDS011;8604;48.148;-1.786;2023-02-24T15:16:12;11.20;;;4.30;;
16975;SDS011;8604;48.148;-1.786;2023-02-24T15:18:42;9.00;;;4.20;;
16975;SDS011;8604;48.148;-1.786;2023-02-24T15:21:17;12.27;;;4.20;;
16975;SDS011;8604;48.148;-1.786;2023-02-24T15:23:57;9.80;;;3.93;;
16975;SDS011;8604;48.148;-1.786;2023-02-24T15:45:35;7.63;;;2.60;;
16975;SDS011;8604;48.148;-1.786;2023-02-24T15:51:42;10.13;;;3.23;;
16975;SDS011;8604;48.148;-1.786;2023-02-24T15:54:33;6.20;;;2.50;;
16975;SDS011;8604;48.148;-1.786;2023-02-24T15:57:04;7.77;;;2.87;;
16975;SDS011;8604;48.148;-1.786;2023-02-24T16:11:05;8.57;;;2.63;;
16975;SDS011;8604;48.148;-1.786;2023-02-24T16:26:28;6.23;;;2.40;;
16975;SDS011;8604;48.148;-1.786;2023-02-24T16:29:04;5.80;;;2.40;;
16975;SDS011;8604;48.148;-1.786;2023-02-24T16:31:53;7.23;;;2.70;;
16975;SDS011;8604;48.148;-1.786;2023-02-24T16:34:25;7.27;;;2.80;;
16975;SDS011;8604;48.148;-1.786;2023-02-24T16:36:54;8.80;;;2.80;;
16975;SDS011;8604;48.148;-1.786;2023-02-24T16:39:23;6.40;;;2.67;;
16975;SDS011;8604;48.148;-1.786;2023-02-24T16:41:54;10.90;;;2.90;;
16975;SDS011;8604;48.148;-1.786;2023-02-24T16:44:39;6.53;;;2.70;;
16975;SDS011;8604;48.148;-1.786;2023-02-24T16:47:15;4.67;;;2.23;;
16975;SDS011;8604;48.148;-1.786;2023-02-24T16:49:47;7.00;;;2.83;;
16975;SDS011;8604;48.148;-1.786;2023-02-24T16:52:16;5.10;;;2.40;;
16975;SDS011;8604;48.148;-1.786;2023-02-24T16:54:46;6.70;;;2.80;;
16975;SDS011;8604;48.148;-1.786;2023-02-24T16:57:16;6.93;;;2.60;;
16975;SDS011;8604;48.148;-1.786;2023-02-24T16:59:47;5.17;;;2.53;;
16975;SDS011;8604;48.148;-1.786;2023-02-24T17:04:58;5.20;;;2.30;;
16975;SDS011;8604;48.148;-1.786;2023-02-24T17:07:30;7.47;;;3.03;;
16975;SDS011;8604;48.148;-1.786;2023-02-24T17:13:14;10.13;;;3.60;;
16975;SDS011;8604;48.148;-1.786;2023-02-24T17:15:48;10.67;;;4.50;;
16975;SDS011;8604;48.148;-1.786;2023-02-24T17:18:22;10.33;;;4.17;;
16975;SDS011;8604;48.148;-1.786;2023-02-24T17:25:00;9.67;;;5.40;;
16975;SDS011;8604;48.148;-1.786;2023-02-24T17:31:37;9.47;;;4.77;;
16975;SDS011;8604;48.148;-1.786;2023-02-24T18:35:58;10.13;;;5.53;;
16975;SDS011;8604;48.148;-1.786;2023-02-24T22:34:17;15.00;;;8.70;;
16975;SDS011;8604;48.148;-1.786;2023-02-24T22:36:57;16.17;;;9.10;;
16975;SDS011;8604;48.148;-1.786;2023-02-24T22:39:28;14.73;;;9.77;;
16975;SDS011;8604;48.148;-1.786;2023-02-24T22:42:00;12.73;;;8.80;;
16975;SDS011;8604;48.148;-1.786;2023-02-24T22:49:23;19.97;;;14.20;;
16975;SDS011;8604;48.148;-1.786;2023-02-24T22:51:55;15.47;;;10.13;;
16975;SDS011;8604;48.148;-1.786;2023-02-24T22:54:23;15.03;;;10.37;;
16975;SDS011;8604;48.148;-1.786;2023-02-24T22:56:53;17.23;;;10.07;;